HELX

Details ICAO HELX (LXR)
Name LUXOR INTL
Region Egypt
Timezone Africa/Cairo (UTC+2.0)
Plans Departing 59
Arriving 67
Stats Elevation 294 ft / 90 m (AMSL)
Location 25.671086° 32.706403°
Runways 1
Magnetic Variation 4.083° E
Sunrise 2017-12-14 04:28:42 UTC / 2017-12-14 06:28:42 Local
Sunset 2017-12-14 15:01:44 UTC / 2017-12-14 17:01:44 Local
Advertisement - Login to hide

Runways

ID Width Length Bearing (true) Bearing (mag) Surface Threshold Offset Overrun Length
02 148 ft / 45 m 9,874 ft / 3,010 m 22.46° 18.38° Asphalt 0 ft / 0 m 215 ft / 66 m
20 148 ft / 45 m 9,874 ft / 3,010 m 202.47° 198.39° Asphalt 0 ft / 0 m 215 ft / 66 m

Approach Navaids

Runway Type Ident Frequency Range Bearing (true) Bearing (mag) Slope Elevation
20 Localiser XIL 111.10 MHz 18 nm / 33 km 202.41° 198.33° - 303 ft / 92 m (AMSL)
20 Glidescope XIL 111.10 MHz 10 nm / 19 km 202.46° 198.38° 3.00° 326 ft / 99 m (AMSL)
20 DME XIL 111.10 MHz 18 nm / 33 km - - - 326 ft / 99 m (AMSL)

Map

Weather


0- 5 10 15 20 25 30 35+ Temperature / ° C

Clouds and Precipitation
Forecast for 2017-12-14 12:00 UTC. Updated 2 hours ago

Ground ~20,000 ft ~40,000 ft Winds

METAR

HELX 141200Z 22002KT CAVOK 23/08 Q1015 NOSIG

TAF

TAF HELX 141100Z 1412/1518 32010KT CAVOK

Frequencies

Ground 121.90 MHz GND
Tower 119.90 MHz TWR
Approach 118.10 MHz RADAR
Tower 118.10 MHz TWR
Approach 124.30 MHz RADAR
Warning: Do not use this data for real-world aviation or navigation. No guarantee of current accuracy is given.